createdAt,value
2022-10-26T00:01:52.790Z,24.30
2022-10-26T00:04:55.037Z,20.27
2022-10-26T00:07:57.246Z,25.00
2022-10-26T00:10:59.460Z,20.80
2022-10-26T00:14:01.574Z,20.52
2022-10-26T00:17:03.955Z,23.30
2022-10-26T00:20:06.607Z,24.00
2022-10-26T00:23:08.802Z,23.10
2022-10-26T00:26:11.325Z,21.75
2022-10-26T00:29:13.500Z,20.10
2022-10-26T00:32:15.702Z,23.63
2022-10-26T00:35:24.124Z,23.37
2022-10-26T00:38:31.180Z,27.70
2022-10-26T00:41:34.607Z,27.60
2022-10-26T00:44:56.744Z,24.38
2022-10-26T00:48:03.547Z,29.25
2022-10-26T00:51:15.908Z,27.50
2022-10-26T00:54:19.121Z,26.10
2022-10-26T00:57:21.544Z,20.75
2022-10-26T01:00:23.756Z,21.38
2022-10-26T01:03:28.045Z,20.77
2022-10-26T01:06:31.599Z,21.13
2022-10-26T01:09:34.167Z,22.80
2022-10-26T01:12:36.972Z,22.08
2022-10-26T01:15:49.192Z,21.23
2022-10-26T01:19:07.371Z,21.48
2022-10-26T01:22:25.866Z,20.13
2022-10-26T01:26:04.927Z,21.48
2022-10-26T01:29:07.036Z,22.80
2022-10-26T01:32:13.561Z,23.63
2022-10-26T01:35:45.885Z,20.23
2022-10-26T01:39:05.829Z,23.17
2022-10-26T01:42:09.932Z,19.40
2022-10-26T01:45:12.928Z,22.33
2022-10-26T01:48:18.268Z,20.60
2022-10-26T01:51:21.415Z,19.98
2022-10-26T01:54:23.585Z,19.03
2022-10-26T01:57:25.795Z,22.38
2022-10-26T02:00:28.968Z,22.35
2022-10-26T02:04:06.613Z,19.80
2022-10-26T02:07:30.423Z,19.63
2022-10-26T02:10:46.526Z,16.63
2022-10-26T02:14:18.186Z,19.35
2022-10-26T02:17:28.694Z,17.38
2022-10-26T02:20:36.172Z,18.27
2022-10-26T02:23:41.584Z,19.13
2022-10-26T02:26:46.563Z,19.33
2022-10-26T02:29:49.525Z,21.35
2022-10-26T02:32:54.304Z,19.42
2022-10-26T02:35:59.229Z,19.30
2022-10-26T02:39:03.951Z,17.45
2022-10-26T02:42:07.335Z,20.87
2022-10-26T02:45:17.082Z,21.35
2022-10-26T02:48:19.618Z,21.00
2022-10-26T02:52:15.560Z,18.20
2022-10-26T02:55:26.227Z,19.98
2022-10-26T02:58:30.707Z,18.67
2022-10-26T03:01:34.031Z,20.92
2022-10-26T03:04:36.359Z,19.85
2022-10-26T03:07:38.552Z,19.33
2022-10-26T03:10:44.946Z,20.50
2022-10-26T03:13:47.358Z,17.70
2022-10-26T03:19:56.723Z,22.15
2022-10-26T03:22:58.931Z,22.33
2022-10-26T03:26:01.206Z,17.85
2022-10-26T03:29:03.419Z,19.93
2022-10-26T03:32:06.033Z,18.48
2022-10-26T03:35:08.573Z,18.70
2022-10-26T03:38:15.162Z,19.58
2022-10-26T03:41:18.242Z,18.92
2022-10-26T03:44:20.392Z,18.97
2022-10-26T03:47:22.588Z,16.70
2022-10-26T03:50:25.050Z,16.10
2022-10-26T03:53:27.539Z,20.02
2022-10-26T03:56:29.701Z,17.02
2022-10-26T03:59:32.404Z,20.37
2022-10-26T04:02:35.395Z,19.95
2022-10-26T04:05:38.488Z,20.85
2022-10-26T04:08:41.483Z,17.05
2022-10-26T04:11:44.572Z,20.52
2022-10-26T04:14:46.903Z,20.07
2022-10-26T04:17:49.595Z,21.58
2022-10-26T04:20:51.924Z,21.05
2022-10-26T04:23:54.125Z,20.85
2022-10-26T04:26:56.224Z,23.40
2022-10-26T04:29:58.829Z,24.10
2022-10-26T04:33:01.043Z,21.52
2022-10-26T04:36:03.333Z,19.85
2022-10-26T04:39:05.503Z,24.02
2022-10-26T04:42:07.641Z,21.63
2022-10-26T04:45:10.542Z,23.40
2022-10-26T04:48:13.824Z,24.63
2022-10-26T04:51:16.213Z,19.00
2022-10-26T04:54:18.350Z,16.98
2022-10-26T04:57:20.870Z,21.02
2022-10-26T05:00:23.267Z,20.93
2022-10-26T05:03:25.426Z,18.92
2022-10-26T05:06:27.627Z,19.35
2022-10-26T05:09:29.777Z,24.15
2022-10-26T05:12:32.072Z,25.85
2022-10-26T05:15:34.244Z,27.00
2022-10-26T05:18:36.386Z,28.25
2022-10-26T05:21:38.833Z,23.90
2022-10-26T05:24:40.996Z,24.98
2022-10-26T05:27:43.107Z,24.48
2022-10-26T05:30:46.077Z,24.37
2022-10-26T05:33:51.807Z,27.88
2022-10-26T05:36:54.572Z,25.90
2022-10-26T05:39:56.689Z,30.15
2022-10-26T05:43:02.335Z,31.73
2022-10-26T05:46:04.690Z,30.17
2022-10-26T05:49:06.841Z,32.45
2022-10-26T05:52:09.163Z,28.85
2022-10-26T05:55:14.107Z,33.50
2022-10-26T05:58:16.710Z,40.63
2022-10-26T06:01:28.825Z,37.47
2022-10-26T06:04:39.006Z,31.83
2022-10-26T06:07:41.581Z,26.13
2022-10-26T06:10:43.982Z,18.00
2022-10-26T06:13:46.422Z,15.52
2022-10-26T06:17:27.119Z,12.63
2022-10-26T06:20:52.791Z,14.05
2022-10-26T06:23:58.852Z,11.88
2022-10-26T06:27:23.755Z,12.25
2022-10-26T06:30:26.826Z,14.07
2022-10-26T06:33:30.492Z,12.00
2022-10-26T06:36:33.500Z,10.75
2022-10-26T06:39:36.528Z,11.07
2022-10-26T06:42:39.436Z,11.07
2022-10-26T06:45:45.684Z,13.93
2022-10-26T06:48:54.549Z,11.17
2022-10-26T06:52:04.196Z,13.40
2022-10-26T06:55:14.355Z,12.77
2022-10-26T06:58:20.213Z,12.07
2022-10-26T07:01:23.469Z,14.18
2022-10-26T07:04:26.297Z,12.70
2022-10-26T07:07:30.803Z,13.65
2022-10-26T07:10:35.163Z,11.63
2022-10-26T07:13:37.267Z,12.70
2022-10-26T07:16:39.426Z,13.93
2022-10-26T07:19:42.947Z,16.50
2022-10-26T07:22:45.131Z,15.93
2022-10-26T07:25:47.238Z,15.65
2022-10-26T07:28:50.422Z,14.35
2022-10-26T07:34:56.582Z,12.93
2022-10-26T07:37:59.455Z,15.30
2022-10-26T07:41:02.114Z,15.60
2022-10-26T07:44:04.265Z,15.68
2022-10-26T07:47:06.383Z,15.25
2022-10-26T07:50:09.482Z,16.23
2022-10-26T07:53:12.471Z,19.73
2022-10-26T07:56:15.470Z,16.10
2022-10-26T07:59:18.662Z,18.45
2022-10-26T08:02:21.046Z,17.80
2022-10-26T08:05:23.381Z,19.53
2022-10-26T08:08:25.544Z,17.65
2022-10-26T08:11:29.708Z,17.30
2022-10-26T08:14:31.849Z,16.27
2022-10-26T08:17:34.701Z,21.33
2022-10-26T08:20:37.796Z,21.07
2022-10-26T08:23:40.794Z,22.00
2022-10-26T08:26:43.227Z,20.73
2022-10-26T08:29:45.367Z,20.15
2022-10-26T08:32:48.186Z,19.08
2022-10-26T08:35:56.480Z,19.90
2022-10-26T08:42:33.060Z,19.90
2022-10-26T08:45:40.497Z,19.45
2022-10-26T08:48:48.488Z,19.60
2022-10-26T08:51:52.643Z,25.73
2022-10-26T08:54:56.820Z,22.42
2022-10-26T08:58:01.898Z,21.30
2022-10-26T09:01:05.504Z,20.05
2022-10-26T09:04:11.996Z,20.13
2022-10-26T09:07:41.939Z,21.73
2022-10-26T09:10:56.064Z,21.85
2022-10-26T09:14:12.728Z,23.05
2022-10-26T09:17:32.038Z,20.30
2022-10-26T09:21:05.060Z,20.95
2022-10-26T09:24:15.389Z,21.37
2022-10-26T09:27:29.967Z,23.52
2022-10-26T09:30:32.580Z,24.05
2022-10-26T09:33:37.643Z,21.25
2022-10-26T09:36:40.633Z,19.65
2022-10-26T09:39:52.019Z,21.83
2022-10-26T09:43:13.954Z,20.30
2022-10-26T09:46:21.861Z,18.77
2022-10-26T09:49:34.380Z,18.70
2022-10-26T09:52:37.264Z,19.83
2022-10-26T09:55:44.572Z,17.27
2022-10-26T09:59:00.040Z,15.43
2022-10-26T10:02:35.287Z,13.63
2022-10-26T10:05:53.216Z,12.90
2022-10-26T10:09:12.715Z,10.35
2022-10-26T10:12:20.739Z,11.73
2022-10-26T10:15:25.466Z,9.63
2022-10-26T10:18:27.877Z,9.90
2022-10-26T10:21:48.721Z,10.23
2022-10-26T10:24:58.023Z,9.27
2022-10-26T10:28:00.151Z,11.90
2022-10-26T10:31:05.133Z,10.13
2022-10-26T10:34:17.765Z,8.95
2022-10-26T10:37:46.993Z,12.02
2022-10-26T10:40:51.549Z,11.65
2022-10-26T10:44:16.163Z,10.43
2022-10-26T10:47:37.551Z,11.98
2022-10-26T10:50:53.181Z,9.68
2022-10-26T10:53:57.301Z,11.07
2022-10-26T10:57:10.828Z,10.50
2022-10-26T11:00:13.925Z,9.10
2022-10-26T11:03:23.327Z,9.23
2022-10-26T11:06:29.440Z,10.10
2022-10-26T11:09:34.681Z,8.25
2022-10-26T11:12:45.071Z,8.18
2022-10-26T11:15:51.111Z,9.43
2022-10-26T11:19:06.593Z,8.80
2022-10-26T11:22:15.115Z,7.30
2022-10-26T11:25:28.852Z,8.00
2022-10-26T11:28:52.739Z,8.90
2022-10-26T11:32:08.263Z,9.70
2022-10-26T11:35:33.288Z,8.38
2022-10-26T11:38:46.583Z,9.15
2022-10-26T11:42:14.775Z,10.25
2022-10-26T11:45:44.697Z,8.90
2022-10-26T11:48:56.291Z,10.33
2022-10-26T11:52:18.951Z,10.20
2022-10-26T11:55:23.065Z,10.10
2022-10-26T11:58:29.535Z,11.48
2022-10-26T12:01:34.210Z,10.40
2022-10-26T12:04:39.000Z,15.17
2022-10-26T12:07:46.086Z,9.90
2022-10-26T12:10:53.379Z,9.07
2022-10-26T12:14:23.807Z,9.23
2022-10-26T12:17:40.434Z,10.82
2022-10-26T12:20:56.863Z,8.30
2022-10-26T12:24:00.461Z,9.70
2022-10-26T12:27:05.123Z,9.73
2022-10-26T12:30:19.427Z,10.40
2022-10-26T12:33:30.919Z,10.93
2022-10-26T12:36:57.507Z,10.17
2022-10-26T12:40:34.084Z,11.30
2022-10-26T12:43:39.376Z,10.20
2022-10-26T12:46:43.356Z,10.02
2022-10-26T12:50:07.645Z,12.25
2022-10-26T12:53:15.542Z,11.33
2022-10-26T12:56:20.373Z,10.80
2022-10-26T12:59:45.843Z,12.13
2022-10-26T13:02:53.881Z,12.68
2022-10-26T13:06:10.768Z,12.18
2022-10-26T13:09:25.141Z,10.93
2022-10-26T13:12:28.617Z,13.52
2022-10-26T13:15:39.879Z,11.88
2022-10-26T13:18:43.329Z,12.15
2022-10-26T13:21:46.787Z,11.18
2022-10-26T13:24:52.208Z,12.23
2022-10-26T13:28:03.847Z,12.90
2022-10-26T13:31:24.149Z,13.88
2022-10-26T13:34:31.677Z,14.55
2022-10-26T13:37:34.912Z,15.20
2022-10-26T13:40:38.309Z,14.73
2022-10-26T13:43:40.922Z,16.42
2022-10-26T13:46:52.194Z,16.30
2022-10-26T13:49:56.996Z,14.18
2022-10-26T13:53:16.897Z,14.48
2022-10-26T13:56:21.593Z,13.57
2022-10-26T13:59:25.695Z,15.93
2022-10-26T14:02:30.542Z,16.67
2022-10-26T14:05:32.764Z,17.33
2022-10-26T14:08:35.855Z,17.38
2022-10-26T14:11:54.396Z,17.00
2022-10-26T14:15:10.553Z,15.05
2022-10-26T14:18:21.845Z,15.32
2022-10-26T14:21:24.067Z,15.68
2022-10-26T14:24:46.203Z,15.85
2022-10-26T14:27:49.884Z,15.87
2022-10-26T14:30:52.513Z,15.77
2022-10-26T14:33:55.793Z,15.55
2022-10-26T14:37:03.242Z,17.50
2022-10-26T14:40:06.749Z,15.77
2022-10-26T14:43:16.419Z,16.93
2022-10-26T14:46:19.699Z,18.60
2022-10-26T14:49:25.769Z,18.05
2022-10-26T14:52:31.181Z,17.23
2022-10-26T14:55:46.587Z,21.85
2022-10-26T14:58:48.899Z,41.33
2022-10-26T15:02:10.418Z,25.42
2022-10-26T15:05:24.516Z,18.20
2022-10-26T15:08:55.871Z,21.48
2022-10-26T15:11:59.446Z,21.27
2022-10-26T15:18:29.566Z,20.48
2022-10-26T15:21:42.863Z,20.65
2022-10-26T15:24:45.710Z,17.67
2022-10-26T15:27:48.417Z,26.10
2022-10-26T15:31:25.414Z,21.60
2022-10-26T15:34:27.611Z,19.65
2022-10-26T15:37:29.874Z,20.85
2022-10-26T15:40:32.219Z,22.67
2022-10-26T15:43:34.399Z,19.60
2022-10-26T15:46:38.757Z,20.53
2022-10-26T15:49:41.531Z,22.42
2022-10-26T15:52:46.782Z,22.40
2022-10-26T15:55:52.882Z,22.85
2022-10-26T15:58:55.242Z,23.20
2022-10-26T16:01:58.191Z,25.67
2022-10-26T16:05:00.407Z,22.52
2022-10-26T16:08:03.350Z,23.05
2022-10-26T16:11:05.658Z,22.77
2022-10-26T16:14:10.566Z,22.35
2022-10-26T16:17:13.172Z,22.43
2022-10-26T16:20:20.072Z,28.83
2022-10-26T16:23:22.285Z,26.92
2022-10-26T16:26:24.555Z,26.52
2022-10-26T16:29:26.845Z,24.05
2022-10-26T16:32:29.469Z,29.17
2022-10-26T16:35:32.153Z,26.33
2022-10-26T16:38:34.729Z,25.60
2022-10-26T16:41:37.002Z,24.10
2022-10-26T16:44:40.052Z,27.13
2022-10-26T16:47:42.835Z,27.50
2022-10-26T16:50:45.131Z,27.10
2022-10-26T16:53:48.723Z,27.65
2022-10-26T16:56:51.641Z,30.33
2022-10-26T16:59:54.175Z,26.52
2022-10-26T17:03:02.524Z,27.57
2022-10-26T17:06:07.367Z,31.98
2022-10-26T17:09:10.233Z,32.17
2022-10-26T17:12:12.822Z,38.38
2022-10-26T17:15:17.391Z,32.80
2022-10-26T17:18:22.708Z,34.53
2022-10-26T17:21:35.363Z,37.45
2022-10-26T17:24:38.408Z,37.60
2022-10-26T17:27:44.904Z,39.33
2022-10-26T17:30:49.979Z,39.45
2022-10-26T17:33:52.774Z,38.20
2022-10-26T17:36:57.713Z,41.45
2022-10-26T17:40:00.494Z,40.47
2022-10-26T17:43:03.183Z,36.65
2022-10-26T17:46:08.773Z,35.78
2022-10-26T17:49:11.337Z,40.43
2022-10-26T17:52:13.959Z,39.92
2022-10-26T17:55:16.714Z,36.58
2022-10-26T17:58:19.443Z,37.45
2022-10-26T18:01:22.424Z,35.63
2022-10-26T18:04:25.924Z,39.10
2022-10-26T18:07:30.123Z,42.55
2022-10-26T18:10:37.951Z,44.13
2022-10-26T18:13:41.263Z,39.60
2022-10-26T18:16:44.285Z,35.38
2022-10-26T18:19:47.253Z,41.53
2022-10-26T18:22:50.416Z,39.30
2022-10-26T18:26:22.523Z,38.88
2022-10-26T18:29:25.130Z,41.58
2022-10-26T18:32:27.744Z,36.22
2022-10-26T18:35:32.353Z,38.90
2022-10-26T18:38:35.860Z,40.05
2022-10-26T18:41:39.313Z,42.20
2022-10-26T18:44:42.009Z,45.05
2022-10-26T18:47:44.327Z,50.95
2022-10-26T18:50:47.204Z,46.37
2022-10-26T18:53:50.485Z,46.28
2022-10-26T18:56:53.612Z,43.58
2022-10-26T18:59:56.343Z,45.03
2022-10-26T19:03:00.438Z,48.50
2022-10-26T19:06:09.900Z,47.00
2022-10-26T19:09:12.748Z,57.33
2022-10-26T19:12:15.709Z,61.08
2022-10-26T19:15:18.365Z,69.88
2022-10-26T19:18:23.947Z,55.17
2022-10-26T19:21:31.578Z,56.17
2022-10-26T19:24:34.791Z,51.25
2022-10-26T19:27:37.597Z,53.42
2022-10-26T19:30:49.320Z,53.65
2022-10-26T19:33:52.631Z,57.90
2022-10-26T19:36:55.274Z,59.23
2022-10-26T19:39:58.185Z,55.53
2022-10-26T19:43:00.939Z,54.30
2022-10-26T19:46:08.314Z,55.10
2022-10-26T19:49:14.185Z,51.13
2022-10-26T19:52:20.167Z,52.60
2022-10-26T19:55:22.582Z,53.40
2022-10-26T19:58:26.965Z,72.53
2022-10-26T20:01:29.808Z,59.88
2022-10-26T20:04:32.756Z,58.50
2022-10-26T20:07:35.631Z,105.30
2022-10-26T20:10:43.194Z,81.47
2022-10-26T20:13:47.410Z,98.30
2022-10-26T20:16:57.123Z,63.30
2022-10-26T20:20:00.728Z,56.00
2022-10-26T20:23:06.727Z,57.70
2022-10-26T20:26:12.816Z,49.35
2022-10-26T20:29:18.745Z,52.47
2022-10-26T20:32:22.870Z,49.45
2022-10-26T20:35:26.775Z,58.28
2022-10-26T20:38:30.996Z,54.37
2022-10-26T20:41:34.337Z,49.00
2022-10-26T20:44:44.339Z,52.13
2022-10-26T20:47:47.245Z,51.38
2022-10-26T20:50:56.118Z,57.33
2022-10-26T20:54:26.719Z,58.07
2022-10-26T20:57:32.127Z,57.55
2022-10-26T21:00:41.451Z,58.60
2022-10-26T21:03:43.679Z,68.75
2022-10-26T21:06:45.842Z,50.50
2022-10-26T21:09:48.163Z,47.77
2022-10-26T21:12:50.572Z,51.85
2022-10-26T21:15:52.970Z,48.05
2022-10-26T21:18:55.190Z,56.28
2022-10-26T21:21:57.345Z,57.50
2022-10-26T21:24:59.497Z,62.03
2022-10-26T21:28:01.653Z,50.88
2022-10-26T21:31:05.305Z,50.95
2022-10-26T21:34:07.475Z,55.28
2022-10-26T21:37:09.660Z,47.22
2022-10-26T21:40:12.657Z,47.33
2022-10-26T21:43:14.949Z,52.50
2022-10-26T21:46:18.961Z,51.60
2022-10-26T21:49:21.901Z,61.88
2022-10-26T21:52:25.305Z,68.65
2022-10-26T21:55:28.705Z,66.17
2022-10-26T21:58:31.895Z,101.85
2022-10-26T22:01:35.101Z,75.75
2022-10-26T22:04:39.007Z,55.20
2022-10-26T22:07:42.099Z,55.47
2022-10-26T22:10:44.526Z,49.10
2022-10-26T22:13:47.605Z,48.83
2022-10-26T22:16:49.807Z,48.95
2022-10-26T22:19:51.984Z,44.05
2022-10-26T22:22:54.196Z,44.95
2022-10-26T22:26:01.447Z,54.07
2022-10-26T22:29:04.373Z,50.65
2022-10-26T22:32:06.824Z,46.97
2022-10-26T22:35:28.477Z,42.95
2022-10-26T22:38:31.416Z,37.38
2022-10-26T22:41:33.609Z,36.57
2022-10-26T22:44:35.940Z,36.25
2022-10-26T22:47:38.157Z,37.00
2022-10-26T22:50:40.307Z,41.33
2022-10-26T22:53:42.809Z,41.67
2022-10-26T22:56:44.956Z,43.57
2022-10-26T22:59:47.120Z,46.95
2022-10-26T23:02:49.535Z,53.15
2022-10-26T23:05:51.701Z,46.55
2022-10-26T23:08:54.027Z,41.60
2022-10-26T23:11:56.182Z,45.23
2022-10-26T23:14:58.341Z,44.72
2022-10-26T23:18:00.505Z,40.80
2022-10-26T23:21:06.944Z,47.83
2022-10-26T23:24:09.333Z,46.95
2022-10-26T23:27:11.531Z,43.33
2022-10-26T23:30:13.845Z,43.05
2022-10-26T23:33:16.086Z,37.17
2022-10-26T23:36:18.560Z,39.42
2022-10-26T23:39:20.702Z,43.97
2022-10-26T23:42:23.459Z,43.17
2022-10-26T23:45:25.856Z,44.65
2022-10-26T23:48:28.431Z,40.42
2022-10-26T23:51:30.553Z,39.00
2022-10-26T23:54:33.015Z,45.33
2022-10-26T23:57:35.158Z,45.83
